Time;durP1;ratioP1;P1;durP2;ratioP2;P2;SDS_P1;SDS_P2;PMS_P1;PMS_P2;Temp;Humidity;BMP_temperature;BMP_pressure;BME280_temperature;BME280_humidity;BME280_pressure;Samples;Min_cycle;Max_cycle;Signal;HPM_P1;HPM_P2
2022/12/23 00:00:39;;;;;;;5.70;4.77;;;3.80;99.90;;;;;;5059955;28;20184;-91
2022/12/23 00:03:05;;;;;;;7.27;5.07;;;3.70;99.90;;;;;;5056805;28;20275;-92
2022/12/23 00:05:35;;;;;;;12.50;6.80;;;3.80;99.90;;;;;;5057163;28;20610;-91
2022/12/23 00:08:00;;;;;;;9.50;4.87;;;3.80;99.90;;;;;;5057105;28;20176;-92
2022/12/23 00:10:26;;;;;;;6.77;5.13;;;3.70;99.90;;;;;;5039607;28;20550;-92
2022/12/23 00:15:36;;;;;;;12.80;5.10;;;3.70;99.90;;;;;;5093711;28;20227;-89
2022/12/23 00:18:02;;;;;;;7.07;5.37;;;3.80;99.90;;;;;;5072425;28;20187;-90
2022/12/23 00:20:27;;;;;;;16.30;6.23;;;3.70;99.90;;;;;;5083021;28;20210;-91
2022/12/23 00:23:05;;;;;;;12.03;6.40;;;3.80;99.90;;;;;;5050208;28;20201;-91
2022/12/23 00:25:39;;;;;;;9.30;5.07;;;3.80;99.90;;;;;;5076730;28;20248;-90
2022/12/23 00:28:22;;;;;;;6.63;4.40;;;3.80;99.90;;;;;;5081533;28;20174;-91
2022/12/23 00:31:08;;;;;;;8.80;3.63;;;3.80;99.90;;;;;;5080311;28;20182;-92
2022/12/23 00:33:45;;;;;;;13.33;6.47;;;3.80;99.90;;;;;;5080049;28;20215;-90
2022/12/23 00:36:26;;;;;;;13.27;5.20;;;3.80;99.90;;;;;;5086164;28;20231;-90
2022/12/23 00:44:21;;;;;;;11.90;6.20;;;3.80;99.90;;;;;;5098989;28;20154;-91
2022/12/23 00:46:47;;;;;;;11.50;5.13;;;3.70;99.90;;;;;;5081376;28;20277;-90
2022/12/23 00:52:00;;;;;;;8.60;5.47;;;3.80;99.90;;;;;;5086576;28;20264;-92
2022/12/23 00:54:27;;;;;;;9.03;3.20;;;3.80;99.90;;;;;;5093523;28;20205;-92
2022/12/23 00:56:53;;;;;;;15.57;4.57;;;3.70;99.90;;;;;;5093088;28;20191;-91
2022/12/23 00:59:19;;;;;;;7.90;4.77;;;3.70;99.90;;;;;;5093558;28;20265;-91
2022/12/23 01:07:13;;;;;;;13.87;4.60;;;3.70;99.90;;;;;;5091373;28;20186;-91
2022/12/23 01:09:39;;;;;;;12.77;5.90;;;3.70;99.90;;;;;;5069664;28;20182;-91
2022/12/23 01:12:04;;;;;;;7.53;4.20;;;3.60;99.90;;;;;;5085570;28;20214;-91
2022/12/23 01:14:30;;;;;;;9.20;5.70;;;3.70;99.90;;;;;;5086563;28;20611;-91
2022/12/23 01:16:56;;;;;;;9.67;4.77;;;3.60;99.90;;;;;;5083836;28;20258;-91
2022/12/23 01:19:22;;;;;;;6.90;4.17;;;3.70;99.90;;;;;;5083642;28;20187;-91
2022/12/23 01:21:48;;;;;;;7.17;4.00;;;3.60;99.90;;;;;;5084254;28;20182;-92
2022/12/23 01:24:13;;;;;;;6.10;3.97;;;3.60;99.90;;;;;;5084642;28;20228;-91
2022/12/23 01:26:39;;;;;;;13.17;4.97;;;3.60;99.90;;;;;;5088326;28;20203;-92
2022/12/23 01:29:04;;;;;;;11.63;5.23;;;3.60;99.90;;;;;;5088955;28;20186;-91
2022/12/23 01:31:30;;;;;;;6.67;3.77;;;3.60;99.90;;;;;;5084609;28;20230;-91
2022/12/23 01:33:56;;;;;;;13.40;5.90;;;3.60;99.90;;;;;;5078609;28;20175;-91
2022/12/23 01:36:22;;;;;;;8.33;4.77;;;3.60;99.90;;;;;;5076975;28;20214;-91
2022/12/23 01:38:49;;;;;;;8.17;4.03;;;3.50;99.90;;;;;;5081940;28;20180;-91
2022/12/23 01:44:43;;;;;;;7.40;5.67;;;3.50;99.90;;;;;;5093793;28;20163;-91
2022/12/23 01:47:13;;;;;;;8.37;5.63;;;3.40;99.90;;;;;;5092411;28;20190;-91
2022/12/23 01:49:40;;;;;;;9.47;3.63;;;3.40;99.90;;;;;;5091801;28;20171;-91
2022/12/23 01:52:06;;;;;;;13.03;4.13;;;3.40;99.90;;;;;;5073291;28;20246;-92
2022/12/23 01:54:33;;;;;;;18.10;3.77;;;3.30;99.90;;;;;;5093010;28;20225;-91
2022/12/23 01:56:58;;;;;;;8.27;4.80;;;3.30;99.90;;;;;;5093028;28;20198;-91
2022/12/23 02:05:11;;;;;;;8.47;5.13;;;3.40;99.90;;;;;;5063036;28;20217;-92
2022/12/23 02:10:30;;;;;;;10.23;6.00;;;3.40;99.90;;;;;;5084384;28;20185;-91
2022/12/23 02:13:07;;;;;;;7.30;4.47;;;3.40;99.90;;;;;;5085921;28;20210;-92
2022/12/23 02:19:04;;;;;;;7.00;4.10;;;3.30;99.90;;;;;;5061289;28;20194;-90
2022/12/23 02:21:56;;;;;;;6.93;4.83;;;3.40;99.90;;;;;;5055036;28;20210;-91
2022/12/23 02:24:43;;;;;;;7.80;4.70;;;3.30;99.90;;;;;;5062691;28;20189;-91
2022/12/23 02:27:31;;;;;;;9.77;5.57;;;3.30;99.90;;;;;;5075042;28;20639;-91
2022/12/23 02:30:03;;;;;;;8.20;5.23;;;3.30;99.90;;;;;;5073120;28;20572;-91
2022/12/23 02:33:02;;;;;;;7.23;5.03;;;3.30;99.90;;;;;;5073016;28;20694;-92
2022/12/23 02:35:41;;;;;;;10.30;5.37;;;3.90;99.90;;;;;;5074096;28;20178;-92
2022/12/23 02:38:22;;;;;;;8.43;4.13;;;3.20;99.90;;;;;;5073246;28;20236;-92
2022/12/23 02:41:11;;;;;;;10.73;5.70;;;3.20;99.90;;;;;;5074268;28;20250;-92
2022/12/23 02:43:54;;;;;;;5.20;3.77;;;3.20;99.90;;;;;;5072912;28;20183;-90
2022/12/23 02:46:32;;;;;;;12.60;4.63;;;3.20;99.90;;;;;;5075608;28;20163;-91
2022/12/23 02:49:07;;;;;;;10.53;6.43;;;3.20;99.90;;;;;;5074284;28;20225;-92
2022/12/23 02:51:39;;;;;;;9.87;4.87;;;3.10;99.90;;;;;;5071648;28;20197;-92
2022/12/23 02:54:09;;;;;;;13.07;6.60;;;3.00;99.90;;;;;;5074461;28;20247;-91
2022/12/23 02:56:39;;;;;;;12.47;5.03;;;3.00;99.90;;;;;;5074298;28;20163;-91
2022/12/23 02:59:15;;;;;;;10.00;5.60;;;2.90;99.90;;;;;;5073650;28;20197;-91
2022/12/23 03:01:43;;;;;;;12.77;7.20;;;2.90;99.90;;;;;;5076589;28;20170;-91
2022/12/23 03:04:09;;;;;;;20.70;5.83;;;2.80;99.90;;;;;;5082854;28;20195;-91
2022/12/23 03:06:44;;;;;;;13.53;4.60;;;2.70;99.90;;;;;;5071048;28;20198;-91
2022/12/23 03:09:18;;;;;;;14.00;5.87;;;2.70;99.90;;;;;;5089897;28;20171;-90
2022/12/23 03:12:11;;;;;;;7.00;4.67;;;2.60;99.90;;;;;;5090343;28;20284;-90
2022/12/23 03:14:58;;;;;;;8.00;3.53;;;2.60;99.90;;;;;;5090450;28;20167;-91
2022/12/23 03:17:58;;;;;;;7.60;5.13;;;2.60;99.90;;;;;;5088074;28;20172;-92
2022/12/23 03:20:37;;;;;;;8.77;4.00;;;2.50;99.90;;;;;;5083668;28;20244;-92
2022/12/23 03:23:21;;;;;;;14.40;4.97;;;2.50;99.90;;;;;;5089495;28;20162;-91
2022/12/23 03:26:03;;;;;;;7.83;5.03;;;2.50;99.90;;;;;;5093912;28;20200;-91
2022/12/23 03:28:44;;;;;;;7.30;5.20;;;2.50;99.90;;;;;;5087840;28;20242;-91
2022/12/23 03:31:17;;;;;;;12.77;5.23;;;2.60;99.90;;;;;;5092209;28;20241;-91
2022/12/23 03:33:48;;;;;;;6.80;4.47;;;2.50;99.90;;;;;;5091046;28;20212;-89
2022/12/23 03:36:48;;;;;;;7.87;5.07;;;2.50;99.90;;;;;;5079424;28;20254;-91
2022/12/23 03:39:18;;;;;;;9.73;4.63;;;2.50;99.90;;;;;;5072819;28;20198;-91
2022/12/23 03:41:51;;;;;;;9.17;3.53;;;2.50;99.90;;;;;;5072339;28;20170;-91
2022/12/23 03:44:28;;;;;;;5.77;4.07;;;2.50;99.90;;;;;;5072388;28;20171;-91
2022/12/23 03:47:10;;;;;;;5.90;5.30;;;2.50;99.90;;;;;;5072103;28;20177;-90
2022/12/23 03:49:47;;;;;;;6.00;4.63;;;2.50;99.90;;;;;;5072296;28;20238;-90
2022/12/23 03:52:17;;;;;;;14.67;5.33;;;2.50;99.90;;;;;;5069770;28;20714;-91
2022/12/23 03:54:53;;;;;;;7.97;5.80;;;2.50;99.90;;;;;;5072088;28;20278;-90
2022/12/23 03:57:21;;;;;;;5.23;4.57;;;2.50;99.90;;;;;;5072234;28;20172;-91
2022/12/23 03:59:52;;;;;;;9.97;4.93;;;2.40;99.90;;;;;;5071802;28;20587;-90
2022/12/23 04:02:34;;;;;;;13.67;5.23;;;2.50;99.90;;;;;;5074586;28;20630;-90
2022/12/23 04:05:02;;;;;;;7.70;4.60;;;2.50;99.90;;;;;;5075478;28;20160;-91
2022/12/23 04:07:32;;;;;;;8.60;5.43;;;2.50;99.90;;;;;;5075760;28;20179;-91
2022/12/23 04:09:58;;;;;;;6.63;3.13;;;2.50;99.90;;;;;;5074949;28;20178;-89
2022/12/23 04:12:26;;;;;;;14.47;5.23;;;2.50;99.90;;;;;;5074304;28;20218;-88
2022/12/23 04:14:52;;;;;;;9.40;5.60;;;2.50;99.90;;;;;;5074967;28;20193;-90
2022/12/23 04:17:18;;;;;;;6.60;3.50;;;2.50;99.90;;;;;;5075373;28;20264;-89
2022/12/23 04:19:44;;;;;;;9.67;4.33;;;2.50;99.90;;;;;;5075484;28;20648;-88
2022/12/23 04:22:11;;;;;;;13.90;6.47;;;2.50;99.90;;;;;;5075433;28;20666;-90
2022/12/23 04:24:37;;;;;;;3.70;3.40;;;2.50;99.90;;;;;;5074938;28;20212;-90
2022/12/23 04:27:03;;;;;;;5.40;4.60;;;2.50;99.90;;;;;;5060751;28;20180;-90
2022/12/23 04:29:29;;;;;;;11.33;4.10;;;2.40;99.90;;;;;;5060765;28;20186;-90
2022/12/23 04:31:55;;;;;;;4.47;4.03;;;2.50;99.90;;;;;;5096745;28;20211;-89
2022/12/23 04:34:20;;;;;;;10.63;4.90;;;2.50;99.90;;;;;;5099751;28;20168;-90
2022/12/23 04:36:46;;;;;;;5.87;3.63;;;2.50;99.90;;;;;;5063695;28;20211;-90
2022/12/23 04:39:12;;;;;;;12.47;4.63;;;2.50;99.90;;;;;;5096184;28;20222;-88
2022/12/23 04:41:37;;;;;;;4.83;4.17;;;2.50;99.90;;;;;;5081970;28;20170;-88
2022/12/23 04:44:03;;;;;;;4.33;3.43;;;2.50;99.90;;;;;;5082694;28;20201;-89
2022/12/23 04:46:29;;;;;;;5.03;4.43;;;2.50;99.90;;;;;;5075602;28;20187;-90
2022/12/23 04:48:54;;;;;;;7.87;4.23;;;2.50;99.90;;;;;;5073705;28;20187;-90
2022/12/23 04:51:20;;;;;;;11.97;5.67;;;2.50;99.90;;;;;;5055336;28;20656;-89
2022/12/23 04:53:45;;;;;;;5.50;3.63;;;2.50;99.90;;;;;;5072701;28;20755;-88
2022/12/23 04:56:11;;;;;;;12.00;5.07;;;2.50;99.90;;;;;;5071785;28;20580;-89
2022/12/23 04:58:38;;;;;;;8.97;6.10;;;2.50;99.90;;;;;;5073588;28;20175;-89
2022/12/23 05:01:09;;;;;;;5.90;4.57;;;2.60;99.90;;;;;;5074489;28;20567;-89
2022/12/23 05:03:35;;;;;;;11.00;5.73;;;2.50;99.90;;;;;;5076081;28;20262;-89
2022/12/23 05:06:01;;;;;;;12.20;5.63;;;2.60;99.90;;;;;;5073126;28;20194;-89
2022/12/23 05:08:26;;;;;;;6.27;3.40;;;2.60;99.90;;;;;;5073560;28;20275;-89
2022/12/23 05:10:52;;;;;;;9.67;5.07;;;2.60;99.90;;;;;;5074404;28;20189;-88
2022/12/23 05:13:18;;;;;;;8.23;5.70;;;2.60;99.90;;;;;;5073333;28;20215;-90
2022/12/23 05:15:53;;;;;;;9.23;4.47;;;2.50;99.90;;;;;;5074663;28;20187;-90
2022/12/23 05:18:20;;;;;;;7.90;5.17;;;2.60;99.90;;;;;;5072153;28;20214;-91
2022/12/23 05:20:46;;;;;;;4.27;3.97;;;2.60;99.90;;;;;;5078219;28;20185;-90
2022/12/23 05:23:12;;;;;;;6.07;4.00;;;2.60;99.90;;;;;;5076047;28;20182;-89
2022/12/23 05:25:38;;;;;;;9.53;4.17;;;2.60;99.90;;;;;;5073502;28;20271;-89
2022/12/23 05:28:05;;;;;;;6.90;5.27;;;2.60;99.90;;;;;;5073172;28;20206;-88
2022/12/23 05:30:31;;;;;;;11.13;5.30;;;2.60;99.90;;;;;;5073087;28;20196;-90
2022/12/23 05:32:57;;;;;;;6.17;5.33;;;2.60;99.90;;;;;;5056513;28;20214;-89
2022/12/23 05:35:24;;;;;;;9.90;5.73;;;2.60;99.90;;;;;;5056113;28;20196;-89
2022/12/23 05:37:51;;;;;;;5.90;4.40;;;2.60;99.90;;;;;;5068597;28;20252;-90
2022/12/23 05:40:16;;;;;;;7.77;5.53;;;2.60;99.90;;;;;;5054087;28;20183;-90
2022/12/23 05:42:42;;;;;;;6.33;5.73;;;2.60;99.90;;;;;;5036163;28;20183;-90
2022/12/23 05:45:08;;;;;;;10.83;6.13;;;2.70;99.90;;;;;;5065867;28;20184;-90
2022/12/23 05:47:34;;;;;;;4.83;3.73;;;2.60;99.90;;;;;;5073797;28;20249;-91
2022/12/23 05:49:59;;;;;;;7.63;4.73;;;2.70;99.90;;;;;;5073280;28;20251;-90
2022/12/23 05:52:25;;;;;;;10.90;5.47;;;2.70;99.90;;;;;;5071308;28;20246;-91
2022/12/23 05:54:51;;;;;;;15.97;5.57;;;2.70;99.90;;;;;;5055455;28;20254;-90
2022/12/23 05:57:16;;;;;;;9.77;5.70;;;2.70;99.90;;;;;;5074000;28;20201;-91
2022/12/23 05:59:42;;;;;;;13.50;5.73;;;2.70;99.90;;;;;;5055694;28;20190;-89
2022/12/23 06:02:08;;;;;;;5.83;5.17;;;2.70;99.90;;;;;;5072100;28;20627;-89
2022/12/23 06:04:33;;;;;;;6.67;5.27;;;2.70;99.90;;;;;;5072542;28;20532;-90
2022/12/23 06:06:59;;;;;;;10.37;4.33;;;2.70;99.90;;;;;;5055373;28;20184;-90
2022/12/23 06:09:25;;;;;;;8.17;3.97;;;;;;;;;;5072315;28;20190;-91
2022/12/23 06:11:51;;;;;;;13.20;4.10;;;2.60;99.90;;;;;;5055360;28;20225;-88
2022/12/23 06:14:16;;;;;;;8.73;5.30;;;2.60;99.90;;;;;;5072358;28;20196;-92
2022/12/23 06:16:42;;;;;;;20.50;7.23;;;2.70;99.90;;;;;;5074314;28;20187;-92
2022/12/23 06:19:07;;;;;;;9.17;4.70;;;2.70;99.90;;;;;;5074606;28;20237;-92
2022/12/23 06:21:33;;;;;;;7.20;3.47;;;2.70;99.90;;;;;;5073840;28;20238;-90
2022/12/23 06:23:59;;;;;;;10.73;6.13;;;2.70;99.90;;;;;;5064792;28;20693;-90
2022/12/23 06:26:25;;;;;;;6.67;4.60;;;2.70;99.90;;;;;;5072521;28;20217;-91
2022/12/23 06:28:51;;;;;;;6.47;4.57;;;3.70;99.90;;;;;;5074547;28;20551;-90
2022/12/23 06:31:17;;;;;;;5.80;3.27;;;2.60;99.90;;;;;;5073507;28;20179;-90
2022/12/23 06:33:42;;;;;;;10.60;4.57;;;2.70;99.90;;;;;;5073620;28;20203;-89
2022/12/23 06:36:08;;;;;;;11.20;5.57;;;2.70;99.90;;;;;;5074155;28;20177;-87
2022/12/23 06:38:34;;;;;;;9.33;4.97;;;2.60;99.90;;;;;;5074578;28;20558;-91
2022/12/23 06:41:00;;;;;;;9.13;6.57;;;2.60;99.90;;;;;;5073018;28;20262;-90
2022/12/23 06:43:25;;;;;;;13.37;4.27;;;2.70;99.90;;;;;;5073448;28;20636;-90
2022/12/23 06:45:51;;;;;;;4.57;4.17;;;2.70;99.90;;;;;;5071746;28;20187;-91
2022/12/23 06:48:17;;;;;;;3.70;3.07;;;2.60;99.90;;;;;;5072290;28;20175;-90
2022/12/23 06:50:43;;;;;;;5.57;4.27;;;2.60;99.90;;;;;;5072160;28;20204;-88
2022/12/23 06:53:09;;;;;;;5.73;5.17;;;2.60;99.90;;;;;;5071791;28;20287;-91
2022/12/23 06:55:35;;;;;;;5.83;3.53;;;2.60;99.90;;;;;;5072734;28;20191;-89
2022/12/23 06:58:00;;;;;;;8.07;5.27;;;2.60;99.90;;;;;;5067003;28;20695;-91
2022/12/23 07:00:26;;;;;;;8.77;6.17;;;2.60;99.90;;;;;;5063705;28;20191;-92
2022/12/23 07:02:54;;;;;;;10.67;5.93;;;2.70;99.90;;;;;;5062499;28;20756;-92
2022/12/23 07:05:20;;;;;;;11.33;6.20;;;2.60;99.90;;;;;;5049843;28;20202;-89
2022/12/23 07:07:46;;;;;;;8.83;4.80;;;2.60;99.90;;;;;;5069273;28;20603;-91
2022/12/23 07:10:12;;;;;;;8.00;4.47;;;2.60;99.90;;;;;;5067857;28;20238;-92
2022/12/23 07:12:38;;;;;;;5.43;4.33;;;2.70;99.90;;;;;;5063856;28;20262;-95
2022/12/23 07:15:05;;;;;;;5.43;4.90;;;2.70;99.90;;;;;;5073789;28;20180;-94
2022/12/23 07:17:31;;;;;;;14.03;5.00;;;2.70;99.90;;;;;;5065657;28;20190;-89
2022/12/23 07:19:57;;;;;;;8.43;5.03;;;2.70;99.90;;;;;;5068800;28;20826;-93
2022/12/23 07:22:23;;;;;;;9.07;4.93;;;2.60;99.90;;;;;;5058742;28;20293;-94
2022/12/23 07:24:49;;;;;;;13.20;5.17;;;2.60;99.90;;;;;;5078446;28;20217;-91
2022/12/23 07:27:15;;;;;;;8.30;5.17;;;2.70;99.90;;;;;;5068100;28;20224;-90
2022/12/23 07:29:40;;;;;;;11.17;6.10;;;2.70;99.90;;;;;;5065399;28;20198;-90
2022/12/23 07:32:06;;;;;;;11.53;4.80;;;2.60;99.90;;;;;;5070747;28;20215;-90
2022/12/23 07:34:32;;;;;;;4.60;4.20;;;2.70;99.90;;;;;;5073506;28;20549;-88
2022/12/23 07:36:57;;;;;;;7.17;4.70;;;2.70;99.90;;;;;;5061114;28;20187;-87
2022/12/23 07:39:23;;;;;;;19.27;9.07;;;2.70;99.90;;;;;;5068274;28;20460;-92
2022/12/23 07:41:49;;;;;;;8.90;5.43;;;2.70;99.90;;;;;;5066945;28;20202;-93
2022/12/23 07:44:14;;;;;;;13.50;6.00;;;2.80;99.90;;;;;;5078340;28;20594;-90
2022/12/23 07:46:40;;;;;;;8.57;4.30;;;2.70;99.90;;;;;;5060520;28;20219;-94
2022/12/23 07:49:06;;;;;;;8.03;5.57;;;2.70;99.90;;;;;;5074118;28;20189;-91
2022/12/23 07:51:31;;;;;;;7.37;4.57;;;2.70;99.90;;;;;;5057409;28;20187;-92
2022/12/23 07:53:57;;;;;;;7.80;4.23;;;2.70;99.90;;;;;;5073046;28;20584;-89
2022/12/23 07:56:23;;;;;;;5.73;4.23;;;2.70;99.90;;;;;;5058990;28;20721;-90
2022/12/23 07:58:50;;;;;;;7.50;4.67;;;2.70;99.90;;;;;;5042317;28;20273;-89
2022/12/23 08:01:17;;;;;;;18.47;7.00;;;2.70;99.90;;;;;;5076873;28;20190;-91
2022/12/23 08:03:43;;;;;;;9.90;5.23;;;2.70;99.90;;;;;;5076770;28;20191;-91
2022/12/23 08:06:14;;;;;;;12.50;4.90;;;2.70;99.90;;;;;;5056519;28;20820;-93
2022/12/23 08:08:40;;;;;;;7.53;4.17;;;2.70;99.90;;;;;;5072015;28;20294;-89
2022/12/23 08:11:09;;;;;;;15.20;5.60;;;2.80;99.90;;;;;;5045086;28;20241;-86
2022/12/23 08:13:37;;;;;;;13.37;4.93;;;2.80;99.90;;;;;;5059335;28;20241;-89
2022/12/23 08:16:04;;;;;;;11.73;5.50;;;2.80;99.90;;;;;;5072776;28;20183;-88
2022/12/23 08:18:32;;;;;;;17.97;5.30;;;2.80;99.90;;;;;;5080244;28;20659;-91
2022/12/23 08:21:00;;;;;;;5.10;3.87;;;2.80;99.90;;;;;;5097457;28;20175;-90
2022/12/23 08:23:27;;;;;;;11.83;5.03;;;2.90;99.90;;;;;;5097196;28;20209;-89
2022/12/23 08:26:06;;;;;;;10.40;5.78;;;2.90;99.90;;;;;;5072371;28;20410;-87
2022/12/23 08:28:33;;;;;;;6.93;5.07;;;2.90;99.90;;;;;;5074692;28;20179;-88
2022/12/23 08:31:07;;;;;;;14.50;6.90;;;2.90;99.90;;;;;;5072266;28;20416;-90
2022/12/23 08:33:35;;;;;;;10.77;5.07;;;0.30;99.90;;;;;;5075644;28;20194;-89
2022/12/23 08:36:01;;;;;;;8.03;5.37;;;;;;;;;;5076090;28;20188;-90
2022/12/23 08:38:27;;;;;;;9.47;4.87;;;;;;;;;;5074865;28;20270;-89
2022/12/23 08:40:54;;;;;;;11.43;3.67;;;;;;;;;;5076144;28;20725;-89
2022/12/23 08:43:20;;;;;;;5.13;3.20;;;;;;;;;;5072078;28;20620;-89
2022/12/23 08:45:46;;;;;;;5.47;3.30;;;;;;;;;;5072562;28;20233;-90
2022/12/23 08:48:12;;;;;;;8.63;4.50;;;3.00;99.90;;;;;;5073105;28;20177;-88
2022/12/23 08:50:43;;;;;;;9.77;4.80;;;3.00;99.90;;;;;;5056706;28;20179;-89
2022/12/23 08:53:10;;;;;;;11.80;7.27;;;3.10;99.90;;;;;;5073814;28;20237;-88
2022/12/23 08:55:38;;;;;;;12.33;5.70;;;3.10;99.90;;;;;;5074819;28;20608;-87
2022/12/23 08:58:04;;;;;;;18.67;6.33;;;;;;;;;;5074775;28;20206;-88
2022/12/23 09:00:31;;;;;;;8.90;5.20;;;;;;;;;;5073359;28;20229;-88
2022/12/23 09:02:57;;;;;;;6.57;5.33;;;;;;;;;;5070459;28;20191;-89
2022/12/23 09:05:23;;;;;;;17.93;6.27;;;;;;;;;;5071262;28;20190;-89
2022/12/23 09:07:49;;;;;;;6.40;4.23;;;;;;;;;;5075555;28;20233;-90
2022/12/23 09:10:15;;;;;;;11.40;5.60;;;;;;;;;;5066068;28;20705;-87
2022/12/23 09:12:41;;;;;;;11.67;5.10;;;;;;;;;;5054784;28;20696;-89
2022/12/23 09:15:08;;;;;;;9.87;3.47;;;3.30;99.90;;;;;;5070506;28;20241;-89
2022/12/23 09:17:34;;;;;;;6.07;3.63;;;;;;;;;;5070772;28;20182;-88
2022/12/23 09:20:00;;;;;;;10.13;7.80;;;;;;;;;;5069693;28;20183;-88
2022/12/23 09:22:26;;;;;;;6.50;3.67;;;;;;;;;;5057547;28;20187;-88
2022/12/23 09:24:52;;;;;;;12.17;5.13;;;;;;;;;;5074434;28;20178;-87
2022/12/23 09:27:21;;;;;;;8.90;4.77;;;;;;;;;;5073415;28;20183;-88
2022/12/23 09:29:47;;;;;;;13.53;6.40;;;;;;;;;;5073765;28;20175;-89
2022/12/23 09:32:13;;;;;;;9.73;4.10;;;;;;;;;;5071813;28;20289;-87
2022/12/23 09:34:39;;;;;;;15.93;7.70;;;;;;;;;;5066455;28;20187;-88
2022/12/23 09:37:05;;;;;;;13.87;6.93;;;;;;;;;;5068762;28;20646;-87
2022/12/23 09:39:31;;;;;;;20.33;7.57;;;;;;;;;;5056542;28;20218;-88
2022/12/23 09:42:43;;;;;;;10.17;5.70;;;3.70;99.90;;;;;;5072736;28;20191;-90
2022/12/23 09:45:51;;;;;;;4.50;4.00;;;3.80;99.90;;;;;;5072703;28;20178;-89
2022/12/23 09:48:24;;;;;;;14.93;6.27;;;3.80;99.90;;;;;;5072923;28;20178;-87
2022/12/23 09:50:54;;;;;;;24.57;7.43;;;3.90;99.90;;;;;;5074393;28;20158;-88
2022/12/23 09:53:39;;;;;;;10.70;7.07;;;4.30;99.90;;;;;;5072401;28;20288;-88
2022/12/23 09:56:18;;;;;;;8.17;4.67;;;2.20;99.90;;;;;;5058140;28;20177;-89
2022/12/23 09:59:16;;;;;;;15.97;7.47;;;4.20;99.90;;;;;;5054768;28;20209;-88
2022/12/23 10:02:07;;;;;;;12.30;5.57;;;4.10;99.90;;;;;;5051910;28;20184;-89
2022/12/23 10:04:39;;;;;;;13.17;7.70;;;4.10;99.90;;;;;;5063000;28;20187;-89
2022/12/23 10:07:05;;;;;;;10.60;5.43;;;;;;;;;;5066116;28;20184;-88
2022/12/23 10:09:40;;;;;;;18.93;7.13;;;4.10;99.90;;;;;;5063099;28;20194;-87
2022/12/23 10:12:30;;;;;;;10.53;4.83;;;4.00;99.90;;;;;;5069566;28;20316;-88
2022/12/23 10:14:59;;;;;;;7.30;4.23;;;4.10;99.90;;;;;;5065807;28;20229;-88
2022/12/23 10:17:33;;;;;;;9.00;4.17;;;3.90;99.90;;;;;;5036881;28;20190;-90
2022/12/23 10:20:01;;;;;;;11.23;6.20;;;3.90;99.90;;;;;;5068851;28;20270;-88
2022/12/23 10:22:36;;;;;;;6.20;4.57;;;3.90;99.90;;;;;;5065461;28;20184;-85
2022/12/23 10:25:11;;;;;;;5.40;3.87;;;3.90;99.90;;;;;;5065592;28;20177;-87
2022/12/23 10:27:38;;;;;;;7.87;4.57;;;3.90;99.90;;;;;;5071524;28;20175;-87
2022/12/23 10:30:14;;;;;;;6.53;4.03;;;3.90;99.90;;;;;;5072265;28;20183;-89
2022/12/23 10:33:03;;;;;;;11.70;6.07;;;4.10;99.90;;;;;;5066345;28;20206;-88
2022/12/23 10:35:51;;;;;;;14.03;7.20;;;4.00;99.90;;;;;;5060586;28;20178;-90
2022/12/23 10:38:42;;;;;;;7.80;4.40;;;4.00;99.90;;;;;;5065111;28;20170;-91
2022/12/23 10:41:32;;;;;;;9.93;4.67;;;4.00;99.90;;;;;;5061880;28;20643;-87
2022/12/23 10:44:29;;;;;;;11.33;5.07;;;3.90;99.90;;;;;;5062842;28;20662;-87
2022/12/23 10:47:07;;;;;;;7.70;4.80;;;3.90;99.90;;;;;;5063810;28;20275;-88
2022/12/23 10:49:47;;;;;;;5.70;4.67;;;3.90;99.90;;;;;;5060412;28;20179;-86
2022/12/23 10:52:16;;;;;;;12.57;6.70;;;4.00;99.90;;;;;;5067308;28;20607;-86
2022/12/23 10:54:45;;;;;;;13.20;5.57;;;4.00;99.90;;;;;;5063671;28;20305;-87
2022/12/23 10:57:12;;;;;;;8.53;3.90;;;4.10;99.90;;;;;;5066753;28;20187;-88
2022/12/23 10:59:38;;;;;;;12.33;6.97;;;;;;;;;;5064644;28;20186;-88
2022/12/23 11:02:13;;;;;;;7.00;5.03;;;4.10;99.90;;;;;;5067935;28;20241;-88
2022/12/23 11:04:44;;;;;;;8.47;5.50;;;4.20;99.90;;;;;;5076715;28;20183;-87
2022/12/23 11:07:15;;;;;;;9.50;5.63;;;4.20;99.90;;;;;;5085779;28;20690;-88
2022/12/23 11:09:44;;;;;;;15.93;6.00;;;4.20;99.90;;;;;;5090678;28;20260;-88
2022/12/23 11:12:11;;;;;;;8.53;4.67;;;4.30;99.90;;;;;;5088816;28;20225;-86
2022/12/23 11:14:58;;;;;;;10.23;5.33;;;4.20;99.90;;;;;;5088334;28;20186;-87
2022/12/23 11:17:30;;;;;;;6.93;4.87;;;4.30;99.90;;;;;;5077602;28;20191;-86
2022/12/23 11:20:11;;;;;;;15.87;6.37;;;4.40;99.90;;;;;;5072984;28;20187;-88
2022/12/23 11:23:00;;;;;;;10.37;4.50;;;4.30;99.90;;;;;;5070687;28;20186;-88
2022/12/23 11:25:35;;;;;;;9.10;4.90;;;4.50;99.90;;;;;;5073821;28;20175;-89
2022/12/23 11:28:12;;;;;;;6.93;4.73;;;4.70;99.90;;;;;;5071769;28;20188;-89
2022/12/23 11:31:13;;;;;;;10.03;5.23;;;4.80;99.90;;;;;;5073587;28;20273;-87
2022/12/23 11:33:57;;;;;;;15.17;5.17;;;4.80;99.90;;;;;;5073426;28;20207;-87
2022/12/23 11:36:28;;;;;;;18.67;7.13;;;4.80;99.90;;;;;;5085391;28;20187;-87
2022/12/23 11:39:09;;;;;;;14.03;8.00;;;4.90;99.90;;;;;;5074138;28;20210;-88
2022/12/23 11:41:46;;;;;;;9.37;5.20;;;4.70;99.90;;;;;;5074981;28;20214;-88
2022/12/23 11:44:34;;;;;;;6.53;4.97;;;5.10;99.90;;;;;;5067710;28;20179;-86
2022/12/23 11:47:35;;;;;;;12.67;6.30;;;4.70;99.90;;;;;;5069925;28;20267;-88
2022/12/23 11:50:22;;;;;;;8.63;5.33;;;4.70;99.90;;;;;;5070768;28;20187;-87
2022/12/23 11:53:01;;;;;;;9.17;5.27;;;4.70;99.90;;;;;;5067114;28;20239;-88
2022/12/23 11:55:31;;;;;;;11.17;5.00;;;4.70;99.90;;;;;;5070193;28;20194;-88
2022/12/23 11:57:59;;;;;;;9.17;4.47;;;4.80;99.90;;;;;;5072977;28;20179;-86
2022/12/23 12:00:39;;;;;;;13.73;6.43;;;4.70;99.90;;;;;;5073960;28;20175;-85
2022/12/23 12:03:07;;;;;;;8.53;5.17;;;4.80;99.90;;;;;;5076649;28;20524;-87
2022/12/23 12:05:45;;;;;;;12.23;6.17;;;4.80;99.90;;;;;;5073699;28;20187;-88
2022/12/23 12:08:17;;;;;;;13.27;5.00;;;4.80;99.90;;;;;;5093229;28;20166;-88
2022/12/23 12:10:43;;;;;;;16.17;5.50;;;4.80;99.90;;;;;;5093299;28;20183;-88
2022/12/23 12:13:48;;;;;;;12.73;5.87;;;4.90;99.90;;;;;;5055132;28;20698;-89
2022/12/23 12:16:29;;;;;;;8.67;4.40;;;4.80;99.90;;;;;;5007998;28;20240;-85
2022/12/23 12:19:17;;;;;;;6.33;4.13;;;4.90;99.90;;;;;;5001034;28;20219;-89
2022/12/23 12:21:44;;;;;;;7.73;4.20;;;;;;;;;;5056153;28;20194;-89
2022/12/23 12:24:10;;;;;;;10.67;4.97;;;4.90;99.90;;;;;;5071591;28;20179;-89
2022/12/23 12:26:37;;;;;;;6.93;4.10;;;4.90;99.90;;;;;;5074055;28;20589;-87
2022/12/23 12:29:26;;;;;;;7.77;5.33;;;4.80;99.90;;;;;;5073468;28;20640;-88
2022/12/23 12:31:55;;;;;;;5.57;3.60;;;4.90;99.90;;;;;;5072916;28;20179;-87
2022/12/23 12:34:50;;;;;;;6.63;4.70;;;4.90;99.90;;;;;;5069714;28;20175;-87
2022/12/23 12:37:16;;;;;;;9.00;4.23;;;;;;;;;;5056932;28;20199;-89
2022/12/23 12:39:53;;;;;;;6.13;3.37;;;4.80;99.90;;;;;;5069592;28;20661;-89
2022/12/23 12:42:39;;;;;;;7.10;4.90;;;4.80;99.90;;;;;;5073490;28;20632;-88
2022/12/23 12:45:15;;;;;;;10.83;5.33;;;4.70;99.90;;;;;;5071179;28;20181;-87
2022/12/23 12:48:21;;;;;;;5.80;3.43;;;4.80;99.90;;;;;;5072038;28;20184;-88
2022/12/23 12:51:11;;;;;;;4.90;4.07;;;5.20;99.90;;;;;;5010204;28;20187;-88
2022/12/23 12:53:49;;;;;;;7.97;4.90;;;4.80;99.90;;;;;;5064139;28;20230;-88
2022/12/23 12:56:25;;;;;;;14.03;6.60;;;4.80;99.90;;;;;;5063283;28;20182;-87
2022/12/23 12:58:52;;;;;;;8.97;5.67;;;;;;;;;;5068845;28;20183;-86
2022/12/23 13:01:35;;;;;;;5.13;3.30;;;4.80;99.90;;;;;;5066971;28;20176;-88
2022/12/23 13:04:33;;;;;;;7.07;4.90;;;4.80;99.90;;;;;;5073725;28;20451;-86
2022/12/23 13:07:25;;;;;;;11.20;6.43;;;4.70;99.90;;;;;;5070929;28;20193;-87
2022/12/23 13:10:19;;;;;;;11.37;6.83;;;5.50;99.90;;;;;;5069176;28;20718;-89
2022/12/23 13:12:54;;;;;;;11.90;5.47;;;4.80;99.90;;;;;;5068399;28;20602;-86
2022/12/23 13:15:27;;;;;;;8.77;4.63;;;4.70;99.90;;;;;;5069824;28;20186;-87
2022/12/23 13:18:18;;;;;;;6.50;4.30;;;4.70;99.90;;;;;;5061406;28;20167;-87
2022/12/23 13:21:12;;;;;;;10.33;6.53;;;4.70;99.90;;;;;;5058554;28;20191;-88
2022/12/23 13:23:59;;;;;;;8.83;5.97;;;4.70;99.90;;;;;;5064461;28;20245;-88
2022/12/23 13:26:44;;;;;;;6.53;5.37;;;4.60;99.90;;;;;;5066145;28;20190;-88
2022/12/23 13:29:29;;;;;;;13.17;6.77;;;4.60;99.90;;;;;;5069666;28;20186;-87
2022/12/23 13:32:07;;;;;;;27.57;7.77;;;4.50;99.90;;;;;;5070182;28;20673;-87
2022/12/23 13:34:35;;;;;;;12.57;5.40;;;4.40;99.90;;;;;;5071165;28;20187;-87
2022/12/23 13:37:11;;;;;;;9.10;5.87;;;4.30;99.90;;;;;;5069873;28;20187;-87
2022/12/23 13:40:04;;;;;;;7.87;4.97;;;4.40;99.90;;;;;;5070947;28;20209;-86
2022/12/23 13:42:37;;;;;;;8.93;5.00;;;4.30;99.90;;;;;;5069671;28;20189;-87
2022/12/23 13:45:08;;;;;;;10.07;6.07;;;4.30;99.90;;;;;;5062272;28;20183;-87
2022/12/23 13:48:07;;;;;;;7.23;5.37;;;4.30;99.90;;;;;;5072084;28;20220;-89
2022/12/23 13:50:46;;;;;;;8.13;4.37;;;4.30;99.90;;;;;;5071601;28;20179;-87
2022/12/23 13:53:46;;;;;;;11.50;5.50;;;4.30;99.90;;;;;;5065186;28;20234;-88
2022/12/23 13:56:35;;;;;;;11.80;5.80;;;4.40;99.90;;;;;;5072282;28;20270;-89
2022/12/23 13:59:18;;;;;;;6.80;4.60;;;4.60;99.90;;;;;;5068350;28;20209;-91